| time (UTC) | temp F | wind direction | speed MPH | gust MPH | rain 1hr in | rain 24hr in | rain mn in | humidity % | barometer mb |
| 20260506102503 | 65 | 208 | 11.0 | 15.0 | 0.00 | 0.71 | 0.71 | 83 | 1009.8 |
| 20260506102003 | 65 | 213 | 11.0 | 15.0 | 0.00 | 0.71 | 0.71 | 84 | 1009.8 |
| 20260506101503 | 65 | 212 | 11.0 | 17.0 | 0.00 | 0.71 | 0.71 | 84 | 1009.8 |
| 20260506101003 | 65 | 208 | 11.0 | 17.0 | 0.00 | 0.71 | 0.71 | 84 | 1009.7 |
| 20260506100503 | 65 | 208 | 11.0 | 16.0 | 0.00 | 0.71 | 0.71 | 84 | 1009.7 |
| 20260506100004 | 65 | 209 | 11.0 | 15.0 | 0.00 | 0.71 | 0.71 | 84 | 1009.7 |
| 20260506095503 | 65 | 213 | 11.0 | 15.0 | 0.00 | 0.71 | 0.71 | 84 | 1009.6 |
| 20260506095003 | 65 | 213 | 12.0 | 17.0 | 0.00 | 0.71 | 0.71 | 84 | 1009.7 |
| 20260506094503 | 65 | 212 | 13.0 | 18.0 | 0.00 | 0.71 | 0.71 | 85 | 1009.6 |
| 20260506094004 | 65 | 212 | 13.0 | 18.0 | 0.00 | 0.71 | 0.71 | 85 | 1009.5 |
| 20260506093503 | 65 | 208 | 12.0 | 19.0 | 0.00 | 0.71 | 0.71 | 85 | 1009.5 |
| 20260506093003 | 65 | 205 | 11.0 | 19.0 | 0.00 | 0.71 | 0.71 | 85 | 1009.4 |
| 20260506092503 | 65 | 204 | 11.0 | 16.0 | 0.00 | 0.71 | 0.71 | 85 | 1009.3 |
| 20260506092004 | 65 | 204 | 11.0 | 16.0 | 0.00 | 0.71 | 0.71 | 85 | 1009.2 |
| 20260506091503 | 65 | 204 | 11.0 | 17.0 | 0.00 | 0.71 | 0.71 | 85 | 1009.1 |
| 20260506091003 | 65 | 203 | 11.0 | 21.0 | 0.00 | 0.71 | 0.71 | 85 | 1009.2 |
| 20260506090504 | 65 | 201 | 11.0 | 21.0 | 0.00 | 0.71 | 0.71 | 85 | 1009.2 |
| 20260506090004 | 65 | 205 | 11.0 | 18.0 | 0.00 | 0.71 | 0.71 | 85 | 1009.2 |
| 20260506085503 | 65 | 208 | 11.0 | 18.0 | 0.00 | 0.71 | 0.71 | 85 | 1009.0 |
| 20260506085003 | 65 | 207 | 11.0 | 17.0 | 0.00 | 0.71 | 0.71 | 86 | 1009.2 |
| 20260506084503 | 65 | 207 | 11.0 | 16.0 | 0.00 | 0.71 | 0.71 | 86 | 1009.1 |
| 20260506084003 | 65 | 208 | 12.0 | 16.0 | 0.00 | 0.71 | 0.71 | 86 | 1009.0 |
| 20260506083503 | 65 | 207 | 13.0 | 20.0 | 0.00 | 0.71 | 0.71 | 86 | 1009.0 |
| 20260506083003 | 65 | 205 | 12.0 | 21.0 | 0.00 | 0.71 | 0.71 | 86 | 1008.9 |
| 20260506082503 | 64 | 204 | 10.0 | 25.0 | 0.00 | 0.71 | 0.71 | 86 | 1009.0 |
| 20260506082003 | 64 | 201 | 11.0 | 25.0 | 0.01 | 0.71 | 0.71 | 87 | 1008.8 |
| 20260506081503 | 65 | 197 | 12.0 | 17.0 | 0.01 | 0.71 | 0.71 | 87 | 1008.5 |
| 20260506081003 | 64 | 194 | 12.0 | 19.0 | 0.01 | 0.71 | 0.71 | 87 | 1008.5 |
| 20260506080503 | 64 | 199 | 12.0 | 19.0 | 0.01 | 0.71 | 0.71 | 87 | 1008.6 |
| 20260506073503 | 65 | 226 | 13.0 | 20.0 | 0.01 | 0.71 | 0.71 | 87 | 1008.5 |
| 20260506073003 | 64 | 230 | 12.0 | 20.0 | 0.01 | 0.71 | 0.71 | 87 | 1008.5 |
| 20260506072503 | 65 | 226 | 11.0 | 20.0 | 0.01 | 0.71 | 0.71 | 87 | 1008.6 |
| 20260506072003 | 65 | 228 | 11.0 | 19.0 | 0.00 | 0.70 | 0.70 | 86 | 1008.5 |
| 20260506071503 | 65 | 226 | 12.0 | 20.0 | 0.00 | 0.70 | 0.70 | 86 | 1008.5 |
| 20260506071003 | 65 | 220 | 12.0 | 20.0 | 0.00 | 0.70 | 0.70 | 87 | 1008.4 |
| 20260506070503 | 65 | 221 | 11.0 | 22.0 | 0.00 | 0.70 | 0.70 | 86 | 1008.6 |
| 20260506062503 | 64 | 239 | 7.0 | 13.0 | 0.14 | 0.72 | 0.70 | 86 | 1008.5 |
| 20260506061503 | 64 | 237 | 8.0 | 14.0 | 0.25 | 0.73 | 0.70 | 86 | 1008.5 |
| 20260506061003 | 64 | 234 | 9.0 | 16.0 | 0.39 | 0.73 | 0.70 | 86 | 1008.4 |
| 20260506060503 | 64 | 234 | 10.0 | 16.0 | 0.43 | 0.73 | 0.70 | 86 | 1008.2 |
| 20260506051003 | 63 | 249 | 4.0 | 12.0 | 0.08 | 0.50 | 0.31 | 86 | 1008.3 |
| 20260506050503 | 63 | 250 | 5.0 | 14.0 | 0.04 | 0.47 | 0.27 | 86 | 1008.3 |
| 20260506045003 | 63 | 230 | 8.0 | 17.0 | 0.06 | 0.52 | 0.27 | 86 | 1008.2 |
| 20260506044503 | 63 | 235 | 9.0 | 17.0 | 0.03 | 0.51 | 0.24 | 86 | 1008.1 |
| 20260506044003 | 64 | 244 | 10.0 | 16.0 | 0.05 | 0.52 | 0.23 | 86 | 1008.2 |
| 20260506043503 | 64 | 239 | 10.0 | 20.0 | 0.05 | 0.55 | 0.23 | 86 | 1008.1 |
| 20260506043003 | 64 | 238 | 10.0 | 20.0 | 0.05 | 0.56 | 0.23 | 86 | 1008.2 |
| 20260506042503 | 64 | 242 | 9.0 | 17.0 | 0.05 | 0.57 | 0.23 | 86 | 1008.0 |
| 20260506042003 | 64 | 240 | 8.0 | 17.0 | 0.05 | 0.58 | 0.23 | 86 | 1008.1 |
| 20260506041503 | 64 | 238 | 7.0 | 16.0 | 0.05 | 0.61 | 0.23 | 86 | 1008.0 |
| 20260506041003 | 64 | 237 | 8.0 | 15.0 | 0.05 | 0.61 | 0.23 | 86 | 1008.1 |
| 20260506040503 | 64 | 225 | 10.0 | 13.0 | 0.05 | 0.61 | 0.23 | 86 | 1008.2 |
| 20260506035503 | 63 | 208 | 8.0 | 20.0 | 0.03 | 0.60 | 0.22 | 86 | 1008.4 |
| 20260506035004 | 64 | 207 | 7.0 | 20.0 | 0.03 | 0.61 | 0.21 | 86 | 1008.4 |
| 20260506034503 | 64 | 216 | 8.0 | 12.0 | 0.03 | 0.61 | 0.21 | 86 | 1008.5 |
| 20260506034003 | 64 | 219 | 10.0 | 13.0 | 0.00 | 0.59 | 0.18 | 85 | 1008.5 |
| 20260506033503 | 64 | 221 | 10.0 | 16.0 | 0.00 | 0.60 | 0.18 | 86 | 1008.5 |
| 20260506033004 | 64 | 229 | 11.0 | 18.0 | 0.00 | 0.60 | 0.18 | 86 | 1008.6 |
| 20260506032503 | 64 | 229 | 12.0 | 18.0 | 0.00 | 0.60 | 0.18 | 86 | 1008.4 |
| 20260506032003 | 64 | 225 | 11.0 | 20.0 | 0.00 | 0.60 | 0.18 | 86 | 1008.5 |
| 20260506031503 | 64 | 226 | 9.0 | 20.0 | 0.00 | 0.60 | 0.18 | 86 | 1008.6 |
| 20260506031003 | 64 | 230 | 9.0 | 15.0 | 0.00 | 0.60 | 0.18 | 86 | 1008.7 |
| 20260506030503 | 64 | 236 | 10.0 | 20.0 | 0.00 | 0.60 | 0.18 | 86 | 1008.6 |
| 20260506030004 | 64 | 232 | 7.0 | 20.0 | 0.01 | 0.60 | 0.18 | 86 | 1008.6 |
| 20260506025503 | 63 | 231 | 4.0 | 16.0 | 0.01 | 0.61 | 0.18 | 86 | 1008.7 |
| 20260506025003 | 63 | 231 | 2.0 | 14.0 | 0.02 | 0.61 | 0.18 | 86 | 1008.4 |
| 20260506024503 | 63 | 229 | 1.0 | 10.0 | 0.05 | 0.61 | 0.18 | 86 | 1008.5 |
| 20260506024003 | 62 | 217 | 0.0 | 9.0 | 0.05 | 0.62 | 0.18 | 86 | 1008.5 |
| 20260506023503 | 61 | 339 | 0.0 | 2.0 | 0.08 | 0.63 | 0.18 | 86 | 1008.6 |
| 20260506023003 | 61 | 332 | 0.0 | 2.0 | 0.09 | 0.64 | 0.18 | 85 | 1008.3 |
| 20260506022503 | 61 | 250 | 1.0 | 4.0 | 0.09 | 0.65 | 0.18 | 85 | 1008.5 |
| 20260506022003 | 61 | 305 | 1.0 | 4.0 | 0.13 | 0.67 | 0.18 | 85 | 1008.6 |
| 20260506021503 | 60 | 336 | 1.0 | 5.0 | 0.16 | 0.68 | 0.18 | 85 | 1008.5 |
| 20260506021003 | 60 | 335 | 1.0 | 5.0 | 0.16 | 0.69 | 0.18 | 85 | 1008.7 |
| 20260506020503 | 60 | 313 | 1.0 | 3.0 | 0.16 | 0.69 | 0.18 | 85 | 1008.8 |
| 20260506020004 | 60 | 315 | 1.0 | 4.0 | 0.15 | 0.70 | 0.17 | 85 | 1008.9 |
| 20260506015503 | 60 | 11 | 1.0 | 4.0 | 0.15 | 0.71 | 0.17 | 85 | 1009.1 |
| 20260506015003 | 60 | 12 | 1.0 | 4.0 | 0.14 | 0.72 | 0.17 | 85 | 1009.2 |
| 20260506014504 | 61 | 346 | 1.0 | 5.0 | 0.11 | 0.69 | 0.13 | 85 | 1009.3 |
| 20260506014003 | 61 | 344 | 0.0 | 5.0 | 0.11 | 0.70 | 0.13 | 85 | 1009.2 |
| 20260506013503 | 61 | 0 | 0.0 | 3.0 | 0.08 | 0.68 | 0.10 | 85 | 1009.4 |
| 20260506013003 | 61 | 0 | 0.0 | 1.0 | 0.07 | 0.68 | 0.09 | 85 | 1009.4 |
| 20260506012503 | 62 | 0 | 0.0 | 0.0 | 0.06 | 0.68 | 0.09 | 85 | 1009.5 |
| 20260506012003 | 61 | 0 | 0.0 | 0.0 | 0.02 | 0.65 | 0.05 | 85 | 1009.8 |
| 20260506011503 | 61 | 13 | 0.0 | 1.0 | 0.00 | 0.63 | 0.02 | 85 | 1009.5 |
| 20260506011003 | 61 | 7 | 1.0 | 3.0 | 0.00 | 0.64 | 0.02 | 85 | 1009.5 |
| 20260506010503 | 61 | 349 | 1.0 | 3.0 | 0.00 | 0.64 | 0.02 | 85 | 1009.6 |
| 20260506010003 | 61 | 355 | 1.0 | 3.0 | 0.00 | 0.65 | 0.02 | 85 | 1009.6 |
| 20260506005503 | 62 | 359 | 0.0 | 3.0 | 0.00 | 0.65 | 0.02 | 85 | 1009.7 |
| 20260506005003 | 62 | 301 | 1.0 | 3.0 | 0.00 | 0.66 | 0.02 | 85 | 1009.6 |
| 20260506004504 | 62 | 296 | 2.0 | 3.0 | 0.01 | 0.66 | 0.02 | 85 | 1009.7 |
| 20260506004003 | 62 | 221 | 3.0 | 6.0 | 0.01 | 0.67 | 0.02 | 84 | 1009.9 |
| 20260506003503 | 62 | 211 | 3.0 | 6.0 | 0.01 | 0.67 | 0.02 | 85 | 1010.0 |
| 20260506003003 | 62 | 203 | 2.0 | 8.0 | 0.01 | 0.67 | 0.02 | 85 | 1010.1 |
| 20260506002503 | 62 | 201 | 1.0 | 8.0 | 0.01 | 0.67 | 0.02 | 85 | 1010.0 |
| 20260506002003 | 62 | 209 | 1.0 | 4.0 | 0.02 | 0.67 | 0.02 | 85 | 1010.1 |
| 20260506001503 | 62 | 205 | 1.0 | 6.0 | 0.02 | 0.67 | 0.02 | 85 | 1009.9 |
| 20260506001003 | 63 | 218 | 1.0 | 6.0 | 0.02 | 0.67 | 0.02 | 85 | 1010.0 |
| 20260506000503 | 62 | 258 | 4.0 | 3.0 | 0.02 | 0.67 | 0.02 | 85 | 1010.0 |
| 20260506000003 | 62 | 237 | 7.0 | 13.0 | 0.02 | 0.67 | 0.02 | 85 | 1010.0 |
| 20260505235503 | 62 | 229 | 8.0 | 13.0 | 0.02 | 0.67 | 0.02 | 85 | 1010.3 |
| 20260505235003 | 63 | 213 | 8.0 | 12.0 | 0.02 | 0.67 | 0.02 | 85 | 1010.3 |
| 20260505234503 | 63 | 204 | 8.0 | 12.0 | 0.02 | 0.66 | 0.02 | 84 | 1010.5 |
| 20260505234003 | 63 | 204 | 7.0 | 13.0 | 0.02 | 0.66 | 0.02 | 84 | 1010.4 |
| 20260505233503 | 64 | 208 | 5.0 | 14.0 | 0.02 | 0.66 | 0.02 | 83 | 1010.4 |
| 20260505233003 | 65 | 213 | 3.0 | 14.0 | 0.02 | 0.66 | 0.02 | 83 | 1010.3 |
| 20260505232503 | 65 | 216 | 2.0 | 8.0 | 0.02 | 0.66 | 0.02 | 82 | 1010.4 |
| 20260505232003 | 65 | 226 | 2.0 | 6.0 | 0.01 | 0.65 | 0.01 | 82 | 1010.4 |
| 20260505231504 | 65 | 311 | 0.0 | 4.0 | 0.01 | 0.65 | 0.01 | 82 | 1010.4 |
| 20260505231003 | 64 | 0 | 0.0 | 4.0 | 0.01 | 0.65 | 0.01 | 81 | 1010.8 |
| 20260505230503 | 64 | 0 | 0.0 | 1.0 | 0.00 | 0.65 | 0.00 | 80 | 1010.8 |
| 20260505230004 | 64 | 0 | 0.0 | 1.0 | 0.00 | 0.65 | 0.00 | 80 | 1010.9 |
| 20260505225503 | 63 | 0 | 0.0 | 4.0 | 0.00 | 0.65 | 0.00 | 80 | 1011.0 |
| 20260505225003 | 63 | 351 | 0.0 | 4.0 | 0.00 | 0.65 | 0.00 | 80 | 1010.9 |
| 20260505224503 | 63 | 346 | 1.0 | 2.0 | 0.00 | 0.65 | 0.00 | 80 | 1011.2 |
| 20260505224003 | 63 | 344 | 1.0 | 3.0 | 0.00 | 0.65 | 0.00 | 81 | 1011.3 |
| 20260505223503 | 63 | 344 | 0.0 | 3.0 | 0.00 | 0.65 | 0.00 | 81 | 1011.4 |
| 20260505223003 | 63 | 0 | 0.0 | 3.0 | 0.00 | 0.65 | 0.00 | 81 | 1011.3 |
| 20260505222503 | 63 | 0 | 0.0 | 0.0 | 0.00 | 0.65 | 0.00 | 81 | 1011.5 |
| 20260505222003 | 63 | 0 | 0.0 | 0.0 | 0.00 | 0.65 | 0.00 | 81 | 1011.5 |
| 20260505221503 | 63 | 0 | 0.0 | 0.0 | 0.00 | 0.65 | 0.00 | 81 | 1011.6 |
| 20260505221003 | 62 | 0 | 0.0 | 0.0 | 0.00 | 0.65 | 0.00 | 81 | 1011.5 |
| 20260505220503 | 62 | 343 | 1.0 | 3.0 | 0.00 | 0.65 | 0.00 | 81 | 1011.5 |
| 20260505220008 | 62 | 347 | 1.0 | 6.0 | 0.00 | 0.65 | 0.00 | 81 | 1011.4 |
| 20260505215503 | 62 | 349 | 1.0 | 6.0 | 0.00 | 0.65 | 0.65 | 81 | 1011.4 |
| 20260505215003 | 62 | 8 | 1.0 | 4.0 | 0.00 | 0.65 | 0.65 | 82 | 1011.5 |
| 20260505214503 | 62 | 19 | 2.0 | 6.0 | 0.00 | 0.65 | 0.65 | 82 | 1011.6 |
| 20260505214003 | 62 | 19 | 3.0 | 8.0 | 0.00 | 0.65 | 0.65 | 82 | 1011.5 |
| 20260505213503 | 62 | 22 | 3.0 | 8.0 | 0.00 | 0.65 | 0.65 | 82 | 1011.8 |
| 20260505213003 | 62 | 30 | 3.0 | 5.0 | 0.00 | 0.65 | 0.65 | 82 | 1011.9 |
| 20260505212503 | 62 | 33 | 3.0 | 5.0 | 0.00 | 0.65 | 0.65 | 82 | 1011.9 |
| 20260505212003 | 62 | 26 | 2.0 | 5.0 | 0.00 | 0.65 | 0.65 | 82 | 1011.9 |
| 20260505211503 | 62 | 18 | 1.0 | 5.0 | 0.00 | 0.65 | 0.65 | 82 | 1011.9 |
| 20260505211003 | 62 | 20 | 2.0 | 5.0 | 0.00 | 0.65 | 0.65 | 82 | 1011.9 |
| 20260505210503 | 62 | 9 | 2.0 | 5.0 | 0.00 | 0.65 | 0.65 | 82 | 1011.9 |
| 20260505210003 | 62 | 9 | 2.0 | 6.0 | 0.00 | 0.65 | 0.65 | 82 | 1011.9 |
| 20260505205503 | 62 | 22 | 2.0 | 6.0 | 0.00 | 0.65 | 0.65 | 82 | 1011.9 |
| 20260505205003 | 62 | 18 | 2.0 | 6.0 | 0.00 | 0.65 | 0.65 | 82 | 1012.0 |
| 20260505204503 | 62 | 15 | 2.0 | 6.0 | 0.00 | 0.65 | 0.65 | 82 | 1012.1 |
| 20260505204003 | 62 | 24 | 2.0 | 5.0 | 0.00 | 0.65 | 0.65 | 82 | 1012.1 |
| 20260505203503 | 62 | 29 | 3.0 | 5.0 | 0.00 | 0.65 | 0.65 | 82 | 1012.1 |
| 20260505203003 | 61 | 34 | 4.0 | 7.0 | 0.00 | 0.65 | 0.65 | 82 | 1012.1 |
| 20260505202503 | 61 | 29 | 4.0 | 7.0 | 0.00 | 0.65 | 0.65 | 82 | 1012.2 |
| 20260505202003 | 61 | 26 | 3.0 | 7.0 | 0.00 | 0.65 | 0.65 | 82 | 1012.2 |
| 20260505201503 | 61 | 25 | 3.0 | 7.0 | 0.00 | 0.65 | 0.65 | 82 | 1012.3 |
| 20260505201003 | 61 | 20 | 3.0 | 5.0 | 0.00 | 0.65 | 0.65 | 82 | 1012.3 |
| 20260505200503 | 61 | 23 | 4.0 | 7.0 | 0.00 | 0.65 | 0.65 | 82 | 1012.3 |
| 20260505200004 | 62 | 29 | 4.0 | 7.0 | 0.00 | 0.65 | 0.65 | 82 | 1012.3 |
| 20260505195503 | 62 | 30 | 3.0 | 7.0 | 0.00 | 0.65 | 0.65 | 82 | 1012.3 |
| 20260505195003 | 62 | 31 | 3.0 | 6.0 | 0.00 | 0.65 | 0.65 | 82 | 1012.3 |
| 20260505194503 | 62 | 26 | 4.0 | 7.0 | 0.00 | 0.65 | 0.65 | 81 | 1012.3 |
| 20260505194003 | 62 | 25 | 4.0 | 7.0 | 0.00 | 0.65 | 0.65 | 81 | 1012.2 |
| 20260505193503 | 62 | 32 | 3.0 | 6.0 | 0.00 | 0.65 | 0.65 | 81 | 1012.2 |
| 20260505193003 | 63 | 31 | 2.0 | 6.0 | 0.00 | 0.65 | 0.65 | 81 | 1012.1 |
| 20260505192503 | 63 | 27 | 2.0 | 4.0 | 0.00 | 0.65 | 0.65 | 81 | 1012.0 |
| 20260505192003 | 63 | 30 | 2.0 | 4.0 | 0.00 | 0.65 | 0.65 | 81 | 1012.0 |
| 20260505191503 | 63 | 18 | 2.0 | 5.0 | 0.00 | 0.65 | 0.65 | 80 | 1012.0 |
| 20260505191003 | 64 | 333 | 2.0 | 5.0 | 0.00 | 0.65 | 0.65 | 80 | 1012.1 |
| 20260505190503 | 64 | 308 | 1.0 | 4.0 | 0.00 | 0.65 | 0.65 | 80 | 1011.9 |
| 20260505190004 | 64 | 297 | 0.0 | 3.0 | 0.00 | 0.65 | 0.65 | 80 | 1011.9 |
| 20260505185503 | 65 | 257 | 0.0 | 2.0 | 0.00 | 0.65 | 0.65 | 80 | 1011.9 |
| 20260505185003 | 65 | 256 | 1.0 | 2.0 | 0.00 | 0.65 | 0.65 | 80 | 1011.9 |
| 20260505184503 | 65 | 237 | 2.0 | 6.0 | 0.00 | 0.65 | 0.65 | 80 | 1011.8 |
| 20260505184003 | 65 | 238 | 3.0 | 6.0 | 0.00 | 0.65 | 0.65 | 80 | 1011.9 |
| 20260505183503 | 65 | 241 | 3.0 | 7.0 | 0.00 | 0.65 | 0.65 | 80 | 1012.0 |
| 20260505183003 | 65 | 239 | 3.0 | 7.0 | 0.00 | 0.65 | 0.65 | 80 | 1012.0 |
| 20260505182503 | 65 | 238 | 3.0 | 6.0 | 0.00 | 0.65 | 0.65 | 80 | 1011.9 |
| 20260505182003 | 65 | 224 | 4.0 | 6.0 | 0.00 | 0.65 | 0.65 | 80 | 1011.8 |
| 20260505181503 | 65 | 209 | 4.0 | 6.0 | 0.00 | 0.65 | 0.65 | 80 | 1011.8 |
| 20260505181003 | 65 | 203 | 5.0 | 7.0 | 0.00 | 0.65 | 0.65 | 80 | 1011.9 |
| 20260505180503 | 65 | 201 | 5.0 | 7.0 | 0.00 | 0.65 | 0.65 | 79 | 1011.8 |
| 20260505180003 | 65 | 197 | 5.0 | 9.0 | 0.00 | 0.65 | 0.65 | 79 | 1011.9 |
| 20260505175503 | 65 | 198 | 5.0 | 9.0 | 0.00 | 0.65 | 0.65 | 79 | 1012.0 |
| 20260505175003 | 65 | 200 | 5.0 | 9.0 | 0.00 | 0.65 | 0.65 | 79 | 1011.9 |
| 20260505174503 | 65 | 202 | 5.0 | 9.0 | 0.00 | 0.65 | 0.65 | 79 | 1011.9 |
| 20260505174003 | 65 | 201 | 6.0 | 9.0 | 0.00 | 0.65 | 0.65 | 80 | 1011.9 |
| 20260505173503 | 65 | 196 | 6.0 | 9.0 | 0.00 | 0.65 | 0.65 | 80 | 1011.9 |
| 20260505173003 | 65 | 198 | 7.0 | 11.0 | 0.00 | 0.65 | 0.65 | 80 | 1012.0 |
| 20260505172503 | 65 | 201 | 7.0 | 11.0 | 0.00 | 0.65 | 0.65 | 80 | 1011.9 |
| 20260505172003 | 66 | 201 | 7.0 | 11.0 | 0.00 | 0.65 | 0.65 | 80 | 1011.8 |
| 20260505171503 | 66 | 201 | 7.0 | 10.0 | 0.00 | 0.65 | 0.65 | 79 | 1011.9 |
| 20260505171003 | 66 | 203 | 7.0 | 11.0 | 0.00 | 0.65 | 0.65 | 79 | 1011.8 |
| 20260505170503 | 66 | 207 | 7.0 | 11.0 | 0.00 | 0.65 | 0.65 | 79 | 1011.8 |
| 20260505170003 | 66 | 214 | 7.0 | 11.0 | 0.00 | 0.65 | 0.65 | 79 | 1011.6 |
| 20260505165504 | 66 | 218 | 7.0 | 10.0 | 0.00 | 0.65 | 0.65 | 79 | 1011.7 |
| 20260505165003 | 66 | 223 | 6.0 | 10.0 | 0.00 | 0.65 | 0.65 | 80 | 1011.7 |
| 20260505164503 | 66 | 225 | 6.0 | 10.0 | 0.00 | 0.65 | 0.65 | 80 | 1011.7 |
| 20260505164003 | 66 | 229 | 7.0 | 10.0 | 0.00 | 0.65 | 0.65 | 80 | 1011.6 |
| 20260505163507 | 66 | 220 | 7.0 | 11.0 | 0.00 | 0.65 | 0.65 | 80 | 1011.7 |
| 20260505163003 | 66 | 214 | 6.0 | 11.0 | 0.00 | 0.65 | 0.65 | 80 | 1011.8 |
| 20260505162503 | 66 | 230 | 6.0 | 11.0 | 0.00 | 0.65 | 0.65 | 80 | 1011.8 |
| 20260505162003 | 66 | 227 | 6.0 | 10.0 | 0.00 | 0.65 | 0.65 | 80 | 1011.8 |
| 20260505161503 | 66 | 221 | 5.0 | 10.0 | 0.00 | 0.65 | 0.65 | 80 | 1011.8 |
| 20260505161003 | 66 | 233 | 5.0 | 9.0 | 0.00 | 0.65 | 0.65 | 80 | 1011.9 |
| 20260505160503 | 66 | 234 | 6.0 | 9.0 | 0.00 | 0.65 | 0.65 | 80 | 1011.9 |
| 20260505153003 | 66 | 213 | 7.0 | 11.0 | 0.00 | 0.65 | 0.65 | 79 | 1012.1 |
| 20260505152503 | 66 | 205 | 7.0 | 11.0 | 0.00 | 0.65 | 0.65 | 79 | 1012.1 |
| 20260505152004 | 66 | 199 | 7.0 | 11.0 | 0.00 | 0.65 | 0.65 | 79 | 1012.1 |
| 20260505151503 | 66 | 200 | 7.0 | 9.0 | 0.00 | 0.65 | 0.65 | 78 | 1012.0 |
| 20260505151003 | 66 | 202 | 8.0 | 11.0 | 0.00 | 0.65 | 0.65 | 78 | 1012.1 |
| 20260505150503 | 67 | 202 | 8.0 | 13.0 | 0.00 | 0.65 | 0.65 | 78 | 1012.0 |
| 20260505140503 | 67 | 210 | 5.0 | 8.0 | 0.00 | 0.65 | 0.65 | 77 | 1012.1 |
| 20260505125003 | 66 | 201 | 8.0 | 11.0 | 0.00 | 0.65 | 0.65 | 80 | 1012.4 |
| 20260505124503 | 66 | 202 | 7.0 | 11.0 | 0.00 | 0.65 | 0.65 | 80 | 1012.4 |
| 20260505124003 | 66 | 201 | 7.0 | 13.0 | 0.00 | 0.65 | 0.65 | 80 | 1012.5 |
| 20260505123503 | 66 | 205 | 6.0 | 13.0 | 0.00 | 0.65 | 0.65 | 80 | 1012.4 |
| 20260505123003 | 66 | 215 | 6.0 | 10.0 | 0.00 | 0.65 | 0.65 | 81 | 1012.5 |
| 20260505122503 | 66 | 211 | 6.0 | 9.0 | 0.00 | 0.65 | 0.65 | 80 | 1012.5 |
| 20260505122003 | 66 | 206 | 6.0 | 9.0 | 0.00 | 0.65 | 0.65 | 80 | 1012.5 |
| 20260505121503 | 66 | 206 | 6.0 | 9.0 | 0.00 | 0.65 | 0.65 | 80 | 1012.4 |
| 20260505121003 | 66 | 209 | 6.0 | 8.0 | 0.00 | 0.65 | 0.65 | 81 | 1012.5 |
| 20260505120503 | 65 | 209 | 6.0 | 9.0 | 0.00 | 0.65 | 0.65 | 81 | 1012.4 |
| 20260505120004 | 65 | 210 | 6.0 | 9.0 | 0.00 | 0.65 | 0.65 | 81 | 1012.3 |
| 20260505115503 | 65 | 213 | 5.0 | 9.0 | 0.00 | 0.65 | 0.65 | 81 | 1012.3 |
| 20260505115003 | 66 | 214 | 6.0 | 8.0 | 0.00 | 0.65 | 0.65 | 81 | 1012.3 |
| 20260505114503 | 66 | 206 | 7.0 | 11.0 | 0.00 | 0.65 | 0.65 | 81 | 1012.3 |
| 20260505114003 | 65 | 200 | 7.0 | 11.0 | 0.00 | 0.65 | 0.65 | 81 | 1012.3 |
| 20260505113503 | 65 | 199 | 7.0 | 11.0 | 0.00 | 0.65 | 0.65 | 81 | 1012.4 |
| 20260505113003 | 65 | 199 | 7.0 | 11.0 | 0.00 | 0.65 | 0.65 | 81 | 1012.5 |
| 20260505112503 | 65 | 204 | 7.0 | 10.0 | 0.00 | 0.65 | 0.65 | 81 | 1012.5 |
| 20260505112003 | 65 | 208 | 7.0 | 9.0 | 0.00 | 0.65 | 0.65 | 81 | 1012.4 |
| 20260505111503 | 65 | 205 | 8.0 | 12.0 | 0.00 | 0.65 | 0.65 | 81 | 1012.3 |
| 20260505111003 | 65 | 202 | 9.0 | 14.0 | 0.00 | 0.65 | 0.65 | 81 | 1012.3 |
| 20260505110503 | 65 | 201 | 9.0 | 14.0 | 0.00 | 0.65 | 0.65 | 81 | 1012.3 |